createdAt,value
2023-02-19T00:01:16.439Z,95.02
2023-02-19T00:03:47.866Z,94.87
2023-02-19T00:06:14.323Z,94.59
2023-02-19T00:08:40.694Z,94.79
2023-02-19T00:11:13.636Z,94.74
2023-02-19T00:13:42.801Z,94.83
2023-02-19T00:16:21.369Z,95.01
2023-02-19T00:18:47.809Z,94.97
2023-02-19T00:21:15.065Z,94.70
2023-02-19T00:23:41.919Z,94.99
2023-02-19T00:26:18.549Z,94.81
2023-02-19T00:28:46.332Z,94.95
2023-02-19T00:31:22.198Z,94.91
2023-02-19T00:33:50.813Z,95.31
2023-02-19T00:36:17.494Z,94.98
2023-02-19T00:38:44.978Z,95.24
2023-02-19T00:41:19.731Z,95.30
2023-02-19T00:43:45.987Z,95.09
2023-02-19T00:46:12.444Z,95.12
2023-02-19T00:48:38.984Z,95.36
2023-02-19T00:51:05.558Z,95.46
2023-02-19T00:53:31.898Z,95.16
2023-02-19T00:55:58.237Z,95.12
2023-02-19T00:58:24.645Z,95.15
2023-02-19T01:00:51.079Z,94.93
2023-02-19T01:03:17.523Z,94.96
2023-02-19T01:05:43.950Z,95.11
2023-02-19T01:08:10.370Z,95.11
2023-02-19T01:10:36.727Z,95.05
2023-02-19T01:13:03.105Z,95.11
2023-02-19T01:15:29.437Z,94.94
2023-02-19T01:17:55.849Z,95.03
2023-02-19T01:20:22.181Z,94.87
2023-02-19T01:22:48.542Z,94.60
2023-02-19T01:25:15.246Z,94.66
2023-02-19T01:27:41.604Z,94.74
2023-02-19T01:30:08.707Z,94.67
2023-02-19T01:32:35.089Z,94.48
2023-02-19T01:35:01.502Z,94.58
2023-02-19T01:37:27.861Z,94.49
2023-02-19T01:39:54.221Z,94.48
2023-02-19T01:42:20.603Z,94.42
2023-02-19T01:44:46.949Z,94.36
2023-02-19T01:47:16.080Z,94.44
2023-02-19T01:49:54.599Z,94.53
2023-02-19T01:52:25.630Z,94.35
2023-02-19T01:54:53.440Z,94.27
2023-02-19T01:57:25.322Z,94.39
2023-02-19T01:59:57.582Z,94.45
2023-02-19T02:02:28.426Z,94.25
2023-02-19T02:04:57.542Z,94.33
2023-02-19T02:07:42.327Z,94.35
2023-02-19T02:10:21.022Z,94.31
2023-02-19T02:12:52.510Z,94.47
2023-02-19T02:15:19.630Z,94.41
2023-02-19T02:17:45.902Z,94.15
2023-02-19T02:20:15.346Z,94.26
2023-02-19T02:22:51.260Z,94.20
2023-02-19T02:25:32.014Z,94.26
2023-02-19T02:28:07.085Z,93.94
2023-02-19T02:30:41.513Z,94.02
2023-02-19T02:33:24.483Z,94.14
2023-02-19T02:36:02.093Z,94.22
2023-02-19T02:38:31.751Z,93.98
2023-02-19T02:40:58.914Z,93.78
2023-02-19T02:43:25.408Z,93.83
2023-02-19T02:45:51.922Z,94.07
2023-02-19T02:48:39.267Z,93.85
2023-02-19T02:51:13.005Z,93.97
2023-02-19T02:54:04.162Z,93.52
2023-02-19T02:56:31.408Z,93.63
2023-02-19T02:59:00.819Z,93.68
2023-02-19T03:02:00.102Z,93.72
2023-02-19T03:04:33.157Z,93.79
2023-02-19T03:07:05.612Z,93.75
2023-02-19T03:09:40.500Z,93.65
2023-02-19T03:12:32.182Z,93.65
2023-02-19T03:15:23.001Z,93.83
2023-02-19T03:18:11.448Z,93.84
2023-02-19T03:20:42.199Z,93.67
2023-02-19T03:23:10.971Z,93.74
2023-02-19T03:25:57.845Z,93.89
2023-02-19T03:28:49.312Z,94.05
2023-02-19T03:31:20.180Z,94.03
2023-02-19T03:33:54.136Z,94.17
2023-02-19T03:36:25.785Z,94.07
2023-02-19T03:38:59.273Z,93.82
2023-02-19T03:41:40.914Z,93.84
2023-02-19T03:44:17.948Z,94.00
2023-02-19T03:47:18.201Z,93.49
2023-02-19T03:49:50.694Z,93.83
2023-02-19T03:52:53.223Z,93.29
2023-02-19T03:55:44.906Z,93.25
2023-02-19T03:58:22.340Z,93.03
2023-02-19T04:01:15.496Z,93.20
2023-02-19T04:03:49.949Z,93.27
2023-02-19T04:06:27.300Z,93.49
2023-02-19T04:08:57.345Z,93.44
2023-02-19T04:11:26.232Z,93.02
2023-02-19T04:14:05.362Z,93.44
2023-02-19T04:16:36.162Z,93.54
2023-02-19T04:19:08.602Z,93.46
2023-02-19T04:21:37.644Z,93.71
2023-02-19T04:24:10.945Z,93.87
2023-02-19T04:26:37.663Z,93.83
2023-02-19T04:29:04.320Z,93.55
2023-02-19T04:31:31.858Z,93.54
2023-02-19T04:33:58.308Z,93.71
2023-02-19T04:36:24.652Z,93.82
2023-02-19T04:38:50.978Z,93.74
2023-02-19T04:41:17.308Z,93.69
2023-02-19T04:43:43.702Z,93.73
2023-02-19T04:46:10.178Z,93.68
2023-02-19T04:48:36.598Z,93.51
2023-02-19T04:51:07.182Z,93.17
2023-02-19T04:53:33.956Z,93.26
2023-02-19T04:56:12.430Z,93.19
2023-02-19T04:58:39.921Z,93.42
2023-02-19T05:01:06.692Z,93.33
2023-02-19T05:03:35.226Z,93.58
2023-02-19T05:06:07.182Z,93.47
2023-02-19T05:08:34.081Z,93.12
2023-02-19T05:11:02.363Z,93.37
2023-02-19T05:13:29.092Z,92.99
2023-02-19T05:16:07.184Z,92.88
2023-02-19T05:18:34.645Z,93.35
2023-02-19T05:21:01.759Z,92.86
2023-02-19T05:23:28.813Z,93.19
2023-02-19T05:25:55.529Z,93.40
2023-02-19T05:28:28.446Z,93.31
2023-02-19T05:30:56.850Z,93.57
2023-02-19T05:33:25.652Z,93.64
2023-02-19T05:35:55.243Z,93.51
2023-02-19T05:38:22.210Z,93.42
2023-02-19T05:40:48.750Z,93.55
2023-02-19T05:43:16.180Z,93.41
2023-02-19T05:45:43.526Z,93.19
2023-02-19T05:48:10.961Z,93.44
2023-02-19T05:50:39.678Z,93.48
2023-02-19T05:53:06.251Z,93.38
2023-02-19T05:55:36.628Z,93.40
2023-02-19T05:58:03.405Z,93.34
2023-02-19T06:00:30.322Z,93.13
2023-02-19T06:02:56.739Z,92.69
2023-02-19T06:05:23.205Z,92.69
2023-02-19T06:07:50.466Z,92.36
2023-02-19T06:10:17.410Z,92.03
2023-02-19T06:12:44.329Z,92.06
2023-02-19T06:15:10.732Z,92.31
2023-02-19T06:17:37.186Z,92.26
2023-02-19T06:20:03.825Z,92.53
2023-02-19T06:22:30.270Z,92.64
2023-02-19T06:24:56.648Z,92.14
2023-02-19T06:27:23.073Z,92.29
2023-02-19T06:29:49.469Z,92.28
2023-02-19T06:32:16.801Z,92.60
2023-02-19T06:34:43.248Z,92.71
2023-02-19T06:37:09.646Z,92.95
2023-02-19T06:39:36.484Z,92.87
2023-02-19T06:42:02.918Z,93.15
2023-02-19T06:44:29.334Z,93.06
2023-02-19T06:46:55.940Z,93.12
2023-02-19T06:49:22.759Z,93.30
2023-02-19T06:51:49.237Z,92.92
2023-02-19T06:54:15.618Z,93.10
2023-02-19T06:56:42.209Z,93.55
2023-02-19T06:59:12.980Z,93.14
2023-02-19T07:01:40.304Z,93.14
2023-02-19T07:04:07.590Z,93.38
2023-02-19T07:06:35.358Z,93.42
2023-02-19T07:09:02.958Z,93.15
2023-02-19T07:11:31.672Z,93.25
2023-02-19T07:13:59.679Z,93.51
2023-02-19T07:16:27.323Z,93.54
2023-02-19T07:18:56.912Z,93.50
2023-02-19T07:21:23.399Z,93.19
2023-02-19T07:23:49.834Z,93.36
2023-02-19T07:26:18.360Z,93.39
2023-02-19T07:28:47.104Z,93.44
2023-02-19T07:31:18.694Z,93.31
2023-02-19T07:33:46.486Z,93.30
2023-02-19T07:36:14.873Z,93.38
2023-02-19T07:38:41.178Z,93.08
2023-02-19T07:41:08.399Z,93.43
2023-02-19T07:43:36.735Z,93.22
2023-02-19T07:46:04.874Z,93.45
2023-02-19T07:48:31.355Z,93.35
2023-02-19T07:50:59.982Z,93.19
2023-02-19T07:53:28.384Z,93.07
2023-02-19T07:55:59.470Z,93.08
2023-02-19T07:58:25.867Z,93.17
2023-02-19T08:00:52.328Z,92.90
2023-02-19T08:03:18.838Z,92.95
2023-02-19T08:05:45.358Z,93.18
2023-02-19T08:08:14.229Z,93.26
2023-02-19T08:10:59.793Z,92.97
2023-02-19T08:13:30.064Z,92.98
2023-02-19T08:16:18.352Z,93.20
2023-02-19T08:18:48.713Z,93.18
2023-02-19T08:21:18.262Z,92.99
2023-02-19T08:23:46.208Z,93.12
2023-02-19T08:26:12.809Z,93.27
2023-02-19T08:28:39.379Z,93.31
2023-02-19T08:31:07.518Z,93.27
2023-02-19T08:33:34.643Z,93.67
2023-02-19T08:36:05.941Z,93.80
2023-02-19T08:38:35.705Z,93.81
2023-02-19T08:41:07.228Z,94.04
2023-02-19T08:43:34.094Z,93.90
2023-02-19T08:46:00.586Z,94.12
2023-02-19T08:48:27.642Z,93.85
2023-02-19T08:50:59.032Z,94.14
2023-02-19T08:53:26.339Z,93.91
2023-02-19T08:55:53.009Z,93.78
2023-02-19T08:58:19.424Z,93.94
2023-02-19T09:00:45.810Z,93.89
2023-02-19T09:03:12.205Z,93.55
2023-02-19T09:05:39.218Z,93.97
2023-02-19T09:08:05.905Z,93.46
2023-02-19T09:10:32.227Z,93.39
2023-02-19T09:12:58.560Z,93.65
2023-02-19T09:15:24.954Z,93.50
2023-02-19T09:17:54.341Z,93.57
2023-02-19T09:20:20.912Z,93.95
2023-02-19T09:22:47.350Z,93.66
2023-02-19T09:25:13.776Z,93.45
2023-02-19T09:27:40.240Z,93.81
2023-02-19T09:30:07.270Z,93.85
2023-02-19T09:32:33.688Z,93.22
2023-02-19T09:35:00.118Z,93.30
2023-02-19T09:37:27.819Z,93.24
2023-02-19T09:39:55.232Z,93.43
2023-02-19T09:42:29.796Z,93.22
2023-02-19T09:44:58.468Z,93.18
2023-02-19T09:47:27.749Z,93.32
2023-02-19T09:49:57.389Z,93.32
2023-02-19T09:52:44.159Z,92.90
2023-02-19T09:55:34.693Z,93.02
2023-02-19T09:58:08.849Z,92.90
2023-02-19T10:00:36.466Z,92.88
2023-02-19T10:03:11.043Z,93.00
2023-02-19T10:05:39.819Z,92.99
2023-02-19T10:08:13.205Z,92.92
2023-02-19T10:10:41.150Z,93.06
2023-02-19T10:13:22.800Z,92.54
2023-02-19T10:15:56.872Z,92.38
2023-02-19T10:18:28.912Z,92.32
2023-02-19T10:20:57.164Z,92.53
2023-02-19T10:23:24.885Z,92.52
2023-02-19T10:25:59.154Z,92.08
2023-02-19T10:28:31.225Z,91.98
2023-02-19T10:30:59.600Z,92.04
2023-02-19T10:33:26.519Z,92.31
2023-02-19T10:35:58.950Z,92.27
2023-02-19T10:38:32.449Z,92.14
2023-02-19T10:41:14.984Z,91.95
2023-02-19T10:43:50.417Z,91.87
2023-02-19T10:46:29.734Z,92.15
2023-02-19T10:49:00.306Z,91.96
2023-02-19T10:51:36.492Z,91.63
2023-02-19T10:54:26.654Z,91.85
2023-02-19T10:56:54.068Z,91.49
2023-02-19T10:59:28.768Z,92.11
2023-02-19T11:01:57.281Z,91.87
2023-02-19T11:04:24.896Z,91.39
2023-02-19T11:06:51.509Z,91.76
2023-02-19T11:09:28.182Z,91.68
2023-02-19T11:11:55.991Z,91.64
2023-02-19T11:14:24.574Z,91.90
2023-02-19T11:16:56.021Z,91.77
2023-02-19T11:19:30.905Z,91.29
2023-02-19T11:21:58.885Z,91.17
2023-02-19T11:24:27.134Z,91.17
2023-02-19T11:26:53.964Z,91.05
2023-02-19T11:29:23.157Z,91.54
2023-02-19T11:31:49.666Z,91.41
2023-02-19T11:34:21.330Z,91.70
2023-02-19T11:37:07.900Z,91.70
2023-02-19T11:39:34.644Z,91.33
2023-02-19T11:42:33.568Z,91.36
2023-02-19T11:45:09.093Z,91.57
2023-02-19T11:48:02.977Z,91.50
2023-02-19T11:50:48.320Z,91.39
2023-02-19T11:53:24.840Z,91.25
2023-02-19T11:56:27.925Z,91.56
2023-02-19T11:59:05.729Z,91.73
2023-02-19T12:01:44.092Z,91.95
2023-02-19T12:04:47.841Z,91.27
2023-02-19T12:07:34.281Z,91.27
2023-02-19T12:10:28.361Z,91.32
2023-02-19T12:13:12.867Z,91.26
2023-02-19T12:16:02.846Z,91.44
2023-02-19T12:18:29.244Z,91.84
2023-02-19T12:21:17.296Z,91.35
2023-02-19T12:23:49.705Z,90.79
2023-02-19T12:26:29.057Z,90.99
2023-02-19T12:29:10.795Z,90.63
2023-02-19T12:31:43.179Z,90.73
2023-02-19T12:34:28.968Z,90.22
2023-02-19T12:37:14.141Z,89.96
2023-02-19T12:40:21.543Z,90.08
2023-02-19T12:43:09.445Z,90.41
2023-02-19T12:45:47.025Z,90.58
2023-02-19T12:48:13.363Z,90.65
2023-02-19T12:50:40.778Z,90.79
2023-02-19T12:53:32.663Z,91.05
2023-02-19T12:56:01.163Z,90.49
2023-02-19T12:58:39.074Z,90.25
2023-02-19T13:01:07.920Z,89.99
2023-02-19T13:04:11.112Z,90.47
2023-02-19T13:06:45.128Z,90.05
2023-02-19T13:09:15.253Z,90.12
2023-02-19T13:11:50.492Z,90.19
2023-02-19T13:14:41.513Z,89.84
2023-02-19T13:17:21.248Z,90.14
2023-02-19T13:19:51.903Z,90.19
2023-02-19T13:22:52.821Z,90.08
2023-02-19T13:25:21.048Z,90.36
2023-02-19T13:28:11.593Z,90.14
2023-02-19T13:31:07.886Z,89.68
2023-02-19T13:33:45.935Z,89.96
2023-02-19T13:36:16.361Z,89.17
2023-02-19T13:38:48.512Z,89.29
2023-02-19T13:41:33.634Z,88.87
2023-02-19T13:44:05.936Z,89.06
2023-02-19T13:46:40.456Z,88.80
2023-02-19T13:49:41.069Z,88.63
2023-02-19T13:52:28.708Z,88.73
2023-02-19T13:55:32.492Z,88.64
2023-02-19T13:58:33.068Z,88.52
2023-02-19T14:01:07.983Z,88.04
2023-02-19T14:03:37.090Z,88.02
2023-02-19T14:06:06.743Z,87.96
2023-02-19T14:08:56.823Z,87.79
2023-02-19T14:11:41.310Z,87.93
2023-02-19T14:14:25.075Z,86.68
2023-02-19T14:17:17.556Z,87.16
2023-02-19T14:19:50.082Z,87.23
2023-02-19T14:22:47.793Z,87.19
2023-02-19T14:25:33.171Z,86.76
2023-02-19T14:28:17.935Z,86.06
2023-02-19T14:30:47.361Z,85.72
2023-02-19T14:33:17.286Z,85.61
2023-02-19T14:35:46.770Z,85.01
2023-02-19T14:38:21.355Z,84.78
2023-02-19T14:40:50.095Z,84.84
2023-02-19T14:43:19.740Z,84.70
2023-02-19T14:45:54.948Z,83.75
2023-02-19T14:48:49.142Z,83.63
2023-02-19T14:51:27.204Z,83.49
2023-02-19T14:53:55.318Z,83.57
2023-02-19T14:56:33.924Z,83.24
2023-02-19T14:59:17.604Z,83.22
2023-02-19T15:01:44.061Z,82.51
2023-02-19T15:04:22.763Z,81.73
2023-02-19T15:06:49.731Z,81.28
2023-02-19T15:09:16.577Z,81.33
2023-02-19T15:11:43.628Z,81.05
2023-02-19T15:14:20.604Z,81.57
2023-02-19T15:16:47.711Z,81.82
2023-02-19T15:19:17.089Z,81.73
2023-02-19T15:21:47.798Z,81.65
2023-02-19T15:24:16.885Z,82.37
2023-02-19T15:26:48.445Z,82.95
2023-02-19T15:29:17.751Z,83.95
2023-02-19T15:31:46.288Z,83.97
2023-02-19T15:34:21.525Z,84.55
2023-02-19T15:36:51.550Z,84.79
2023-02-19T15:39:24.177Z,85.02
2023-02-19T15:41:59.928Z,85.18
2023-02-19T15:44:47.140Z,84.62
2023-02-19T15:47:33.856Z,84.13
2023-02-19T15:50:26.170Z,84.53
2023-02-19T15:53:04.673Z,84.10
2023-02-19T15:55:40.711Z,84.36
2023-02-19T15:58:23.413Z,84.85
2023-02-19T16:00:57.219Z,84.90
2023-02-19T16:03:26.010Z,85.02
2023-02-19T16:05:59.271Z,85.30
2023-02-19T16:08:30.937Z,85.20
2023-02-19T16:11:00.291Z,85.55
2023-02-19T16:13:29.422Z,85.30
2023-02-19T16:16:04.000Z,85.36
2023-02-19T16:18:31.005Z,85.36
2023-02-19T16:20:57.650Z,85.07
2023-02-19T16:23:25.308Z,85.16
2023-02-19T16:26:00.244Z,85.38
2023-02-19T16:28:29.683Z,85.55
2023-02-19T16:30:59.992Z,85.57
2023-02-19T16:33:38.160Z,85.90
2023-02-19T16:36:34.256Z,85.79
2023-02-19T16:39:09.692Z,85.68
2023-02-19T16:41:45.089Z,85.85
2023-02-19T16:44:20.445Z,85.74
2023-02-19T16:46:51.229Z,85.58
2023-02-19T16:49:18.230Z,85.59
2023-02-19T16:51:46.068Z,85.81
2023-02-19T16:54:12.785Z,85.65
2023-02-19T16:56:39.500Z,86.02
2023-02-19T16:59:07.493Z,85.51
2023-02-19T17:01:35.098Z,85.58
2023-02-19T17:04:05.744Z,85.60
2023-02-19T17:06:37.655Z,85.52
2023-02-19T17:09:06.373Z,85.17
2023-02-19T17:11:32.776Z,85.22
2023-02-19T17:13:59.247Z,85.15
2023-02-19T17:16:29.126Z,84.80
2023-02-19T17:18:55.762Z,84.91
2023-02-19T17:21:25.091Z,85.20
2023-02-19T17:23:52.102Z,85.16
2023-02-19T17:26:30.242Z,84.66
2023-02-19T17:28:57.738Z,85.24
2023-02-19T17:31:24.177Z,84.70
2023-02-19T17:33:51.744Z,84.80
2023-02-19T17:36:22.602Z,84.98
2023-02-19T17:38:49.109Z,84.97
2023-02-19T17:41:15.466Z,84.88
2023-02-19T17:43:41.833Z,84.78
2023-02-19T17:46:17.304Z,84.45
2023-02-19T17:48:44.089Z,84.14
2023-02-19T17:51:11.204Z,84.44
2023-02-19T17:53:37.901Z,84.28
2023-02-19T17:56:04.684Z,84.04
2023-02-19T17:58:31.119Z,83.65
2023-02-19T18:00:57.613Z,83.58
2023-02-19T18:03:24.092Z,83.59
2023-02-19T18:05:50.478Z,83.74
2023-02-19T18:08:16.849Z,83.33
2023-02-19T18:10:43.337Z,83.37
2023-02-19T18:13:10.444Z,83.34
2023-02-19T18:15:36.839Z,83.31
2023-02-19T18:18:04.997Z,83.37
2023-02-19T18:20:31.844Z,83.12
2023-02-19T18:22:58.279Z,83.07
2023-02-19T18:25:25.020Z,83.07
2023-02-19T18:27:51.451Z,82.83
2023-02-19T18:30:19.664Z,82.39
2023-02-19T18:32:49.759Z,81.78
2023-02-19T18:35:17.997Z,81.91
2023-02-19T18:37:44.690Z,81.80
2023-02-19T18:40:11.654Z,81.76
2023-02-19T18:42:38.978Z,81.46
2023-02-19T18:45:05.629Z,81.88
2023-02-19T18:47:32.078Z,81.64
2023-02-19T18:49:59.466Z,81.48
2023-02-19T18:52:27.013Z,81.67
2023-02-19T18:54:57.181Z,81.88
2023-02-19T18:57:24.925Z,81.54
2023-02-19T18:59:51.577Z,81.68
2023-02-19T19:02:18.931Z,81.65
2023-02-19T19:04:52.781Z,81.51
2023-02-19T19:07:20.351Z,81.54
2023-02-19T19:09:47.499Z,81.14
2023-02-19T19:12:14.567Z,81.30
2023-02-19T19:14:40.991Z,81.54
2023-02-19T19:17:07.442Z,81.71
2023-02-19T19:19:33.805Z,81.60
2023-02-19T19:22:00.185Z,81.99
2023-02-19T19:24:26.617Z,81.96
2023-02-19T19:26:53.993Z,82.26
2023-02-19T19:29:22.019Z,82.21
2023-02-19T19:31:49.532Z,82.09
2023-02-19T19:34:16.409Z,82.16
2023-02-19T19:36:43.210Z,82.28
2023-02-19T19:39:09.563Z,82.28
2023-02-19T19:41:36.452Z,82.44
2023-02-19T19:44:04.917Z,82.19
2023-02-19T19:46:32.030Z,82.46
2023-02-19T19:48:58.841Z,82.40
2023-02-19T19:51:33.852Z,82.65
2023-02-19T19:54:01.010Z,82.53
2023-02-19T19:56:27.339Z,82.77
2023-02-19T19:58:53.678Z,82.82
2023-02-19T20:01:21.282Z,82.61
2023-02-19T20:03:48.278Z,82.57
2023-02-19T20:06:14.660Z,82.95
2023-02-19T20:08:41.203Z,82.60
2023-02-19T20:11:07.621Z,82.85
2023-02-19T20:13:34.480Z,82.84
2023-02-19T20:16:00.973Z,82.91
2023-02-19T20:18:27.491Z,83.22
2023-02-19T20:20:53.868Z,82.94
2023-02-19T20:23:20.293Z,83.18
2023-02-19T20:25:46.655Z,82.94
2023-02-19T20:28:13.081Z,83.19
2023-02-19T20:30:39.492Z,83.24
2023-02-19T20:33:05.836Z,83.06
2023-02-19T20:35:32.393Z,83.15
2023-02-19T20:37:58.891Z,83.45
2023-02-19T20:40:27.719Z,83.21
2023-02-19T20:42:54.351Z,83.33
2023-02-19T20:45:21.346Z,83.29
2023-02-19T20:47:47.966Z,83.39
2023-02-19T20:50:17.085Z,83.00
2023-02-19T20:52:43.640Z,83.01
2023-02-19T20:55:10.128Z,83.11
2023-02-19T20:57:37.313Z,83.35
2023-02-19T21:00:05.147Z,83.30
2023-02-19T21:02:31.736Z,83.48
2023-02-19T21:04:58.634Z,83.40
2023-02-19T21:07:25.920Z,83.04
2023-02-19T21:09:52.622Z,83.22
2023-02-19T21:12:20.691Z,82.93
2023-02-19T21:14:47.301Z,83.03
2023-02-19T21:17:13.798Z,83.14
2023-02-19T21:19:40.514Z,83.21
2023-02-19T21:22:07.079Z,83.35
2023-02-19T21:24:33.522Z,83.44
2023-02-19T21:27:00.169Z,83.33
2023-02-19T21:29:27.008Z,83.39
2023-02-19T21:31:55.626Z,83.29
2023-02-19T21:34:25.665Z,83.42
2023-02-19T21:36:52.871Z,83.41
2023-02-19T21:39:21.942Z,83.44
2023-02-19T21:41:48.655Z,83.53
2023-02-19T21:44:15.468Z,83.82
2023-02-19T21:46:41.997Z,83.92
2023-02-19T21:49:12.879Z,83.71
2023-02-19T21:51:41.213Z,84.07
2023-02-19T21:54:08.985Z,84.09
2023-02-19T21:56:36.481Z,84.15
2023-02-19T21:59:03.549Z,84.54
2023-02-19T22:01:38.398Z,84.60
2023-02-19T22:04:10.204Z,84.42
2023-02-19T22:06:39.053Z,84.94
2023-02-19T22:09:06.997Z,84.74
2023-02-19T22:11:33.399Z,84.72
2023-02-19T22:13:59.928Z,85.16
2023-02-19T22:16:26.519Z,84.77
2023-02-19T22:18:56.142Z,84.97
2023-02-19T22:21:24.100Z,85.16
2023-02-19T22:23:52.437Z,85.14
2023-02-19T22:26:19.042Z,85.23
2023-02-19T22:28:47.595Z,85.12
2023-02-19T22:31:19.010Z,85.39
2023-02-19T22:33:45.807Z,84.93
2023-02-19T22:36:18.996Z,85.33
2023-02-19T22:38:45.737Z,85.15
2023-02-19T22:41:12.244Z,85.05
2023-02-19T22:43:38.812Z,84.89
2023-02-19T22:46:10.177Z,84.90
2023-02-19T22:48:36.633Z,85.11
2023-02-19T22:51:03.093Z,84.93
2023-02-19T22:53:29.477Z,85.01
2023-02-19T22:55:55.880Z,84.69
2023-02-19T22:58:22.332Z,84.77
2023-02-19T23:00:48.708Z,84.96
2023-02-19T23:03:15.072Z,84.91
2023-02-19T23:05:41.429Z,84.88
2023-02-19T23:08:07.906Z,84.75
2023-02-19T23:10:34.325Z,84.79
2023-02-19T23:13:00.864Z,84.65
2023-02-19T23:15:27.237Z,84.96
2023-02-19T23:17:53.589Z,84.68
2023-02-19T23:20:19.973Z,84.53
2023-02-19T23:22:46.370Z,84.92
2023-02-19T23:25:12.963Z,84.83
2023-02-19T23:27:39.346Z,84.87
2023-02-19T23:30:06.719Z,85.11
2023-02-19T23:32:33.288Z,85.02
2023-02-19T23:34:59.671Z,84.94
2023-02-19T23:37:26.013Z,85.03
2023-02-19T23:39:52.372Z,85.12
2023-02-19T23:42:18.778Z,84.98
2023-02-19T23:44:48.548Z,84.88
2023-02-19T23:47:15.122Z,85.04
2023-02-19T23:49:42.026Z,85.21
2023-02-19T23:52:08.436Z,85.03
2023-02-19T23:54:35.064Z,85.46
2023-02-19T23:57:01.536Z,85.04
2023-02-19T23:59:28.000Z,85.18
